sensor_id;sensor_type;location;lat;lon;timestamp;P1;P2;P0
65783;PMS5003;52532;53.358;-1.488;2022-09-03T00:01:22;8.7;1.0;
65783;PMS5003;52532;53.358;-1.488;2022-09-03T00:04:29;12.5;1.0;
65783;PMS5003;52532;53.358;-1.488;2022-09-03T00:07:39;12.9;0.6;
65783;PMS5003;52532;53.358;-1.488;2022-09-03T00:10:49;8.3;0.3;
65783;PMS5003;52532;53.358;-1.488;2022-09-03T00:13:58;12.3;1.7;
65783;PMS5003;52532;53.358;-1.488;2022-09-03T00:17:06;10.7;0.6;
65783;PMS5003;52532;53.358;-1.488;2022-09-03T00:20:15;7.6;0.5;
65783;PMS5003;52532;53.358;-1.488;2022-09-03T00:23:24;11.5;1.0;
65783;PMS5003;52532;53.358;-1.488;2022-09-03T00:26:30;10.7;0.6;
65783;PMS5003;52532;53.358;-1.488;2022-09-03T00:29:38;8.1;1.0;
65783;PMS5003;52532;53.358;-1.488;2022-09-03T00:32:47;11.6;1.0;
65783;PMS5003;52532;53.358;-1.488;2022-09-03T00:36:02;10.7;0.6;
65783;PMS5003;52532;53.358;-1.488;2022-09-03T00:39:13;7.9;0.4;
65783;PMS5003;52532;53.358;-1.488;2022-09-03T00:42:21;10.9;0.0;
65783;PMS5003;52532;53.358;-1.488;2022-09-03T00:45:33;9.0;0.0;
65783;PMS5003;52532;53.358;-1.488;2022-09-03T00:48:49;8.3;0.8;
65783;PMS5003;52532;53.358;-1.488;2022-09-03T00:52:08;12.5;1.0;
65783;PMS5003;52532;53.358;-1.488;2022-09-03T00:55:23;10.6;1.1;
65783;PMS5003;52532;53.358;-1.488;2022-09-03T00:58:37;8.0;0.7;
65783;PMS5003;52532;53.358;-1.488;2022-09-03T01:01:54;3.6;1.1;
65783;PMS5003;52532;53.358;-1.488;2022-09-03T01:05:09;1.2;0.4;
65783;PMS5003;52532;53.358;-1.488;2022-09-03T01:08:25;6.4;0.0;
65783;PMS5003;52532;53.358;-1.488;2022-09-03T01:11:43;3.7;0.7;
65783;PMS5003;52532;53.358;-1.488;2022-09-03T01:14:55;0.2;0.2;
65783;PMS5003;52532;53.358;-1.488;2022-09-03T01:18:08;7.5;1.0;
65783;PMS5003;52532;53.358;-1.488;2022-09-03T01:21:27;12.0;1.0;
65783;PMS5003;52532;53.358;-1.488;2022-09-03T01:24:46;9.6;0.1;
65783;PMS5003;52532;53.358;-1.488;2022-09-03T01:28:05;6.4;1.2;
65783;PMS5003;52532;53.358;-1.488;2022-09-03T01:31:22;3.1;2.1;
65783;PMS5003;52532;53.358;-1.488;2022-09-03T01:34:33;3.3;2.1;
65783;PMS5003;52532;53.358;-1.488;2022-09-03T01:37:47;1.3;1.3;
65783;PMS5003;52532;53.358;-1.488;2022-09-03T01:41:05;2.9;2.5;
65783;PMS5003;52532;53.358;-1.488;2022-09-03T01:45:26;1.6;0.7;
65783;PMS5003;52532;53.358;-1.488;2022-09-03T01:48:41;1.0;1.0;
65783;PMS5003;52532;53.358;-1.488;2022-09-03T01:51:48;2.6;1.9;
65783;PMS5003;52532;53.358;-1.488;2022-09-03T01:55:00;2.3;1.0;
65783;PMS5003;52532;53.358;-1.488;2022-09-03T01:58:16;2.2;2.2;
65783;PMS5003;52532;53.358;-1.488;2022-09-03T02:01:30;0.7;0.4;
65783;PMS5003;52532;53.358;-1.488;2022-09-03T02:04:37;1.0;0.4;
65783;PMS5003;52532;53.358;-1.488;2022-09-03T02:07:40;3.9;2.8;
65783;PMS5003;52532;53.358;-1.488;2022-09-03T02:10:46;2.5;0.9;
65783;PMS5003;52532;53.358;-1.488;2022-09-03T02:13:54;0.0;0.0;
65783;PMS5003;52532;53.358;-1.488;2022-09-03T02:17:00;4.3;1.3;
65783;PMS5003;52532;53.358;-1.488;2022-09-03T02:20:05;1.9;1.9;
65783;PMS5003;52532;53.358;-1.488;2022-09-03T02:23:12;0.9;0.9;
65783;PMS5003;52532;53.358;-1.488;2022-09-03T02:26:17;8.6;1.0;
65783;PMS5003;52532;53.358;-1.488;2022-09-03T02:29:22;12.2;0.0;
65783;PMS5003;52532;53.358;-1.488;2022-09-03T02:32:26;9.7;0.1;
65783;PMS5003;52532;53.358;-1.488;2022-09-03T02:35:29;4.3;2.9;
65783;PMS5003;52532;53.358;-1.488;2022-09-03T02:38:32;4.2;2.4;
65783;PMS5003;52532;53.358;-1.488;2022-09-03T02:41:35;3.5;1.8;
65783;PMS5003;52532;53.358;-1.488;2022-09-03T02:44:39;2.4;1.2;
65783;PMS5003;52532;53.358;-1.488;2022-09-03T02:47:46;2.7;1.5;
65783;PMS5003;52532;53.358;-1.488;2022-09-03T02:50:53;1.1;0.9;
65783;PMS5003;52532;53.358;-1.488;2022-09-03T02:53:56;0.9;0.9;
65783;PMS5003;52532;53.358;-1.488;2022-09-03T02:56:59;1.2;0.9;
65783;PMS5003;52532;53.358;-1.488;2022-09-03T03:00:02;1.9;0.1;
65783;PMS5003;52532;53.358;-1.488;2022-09-03T03:03:06;10.8;0.9;
65783;PMS5003;52532;53.358;-1.488;2022-09-03T03:06:08;15.2;1.5;
65783;PMS5003;52532;53.358;-1.488;2022-09-03T03:09:12;7.9;0.5;
65783;PMS5003;52532;53.358;-1.488;2022-09-03T03:12:15;9.8;0.5;
65783;PMS5003;52532;53.358;-1.488;2022-09-03T03:15:18;12.1;1.4;
65783;PMS5003;52532;53.358;-1.488;2022-09-03T03:18:21;8.0;0.7;
65783;PMS5003;52532;53.358;-1.488;2022-09-03T03:21:25;8.0;0.3;
65783;PMS5003;52532;53.358;-1.488;2022-09-03T03:24:28;1.7;1.0;
65783;PMS5003;52532;53.358;-1.488;2022-09-03T03:27:30;0.1;0.1;
65783;PMS5003;52532;53.358;-1.488;2022-09-03T03:30:35;8.9;0.8;
65783;PMS5003;52532;53.358;-1.488;2022-09-03T03:33:40;2.8;1.4;
65783;PMS5003;52532;53.358;-1.488;2022-09-03T03:36:43;0.4;0.4;
65783;PMS5003;52532;53.358;-1.488;2022-09-03T03:39:46;4.8;0.6;
65783;PMS5003;52532;53.358;-1.488;2022-09-03T03:42:49;1.9;1.8;
65783;PMS5003;52532;53.358;-1.488;2022-09-03T03:45:55;3.5;2.1;
65783;PMS5003;52532;53.358;-1.488;2022-09-03T03:48:59;12.7;2.0;
65783;PMS5003;52532;53.358;-1.488;2022-09-03T03:52:02;11.8;0.9;
65783;PMS5003;52532;53.358;-1.488;2022-09-03T03:55:05;7.0;0.1;
65783;PMS5003;52532;53.358;-1.488;2022-09-03T03:58:09;10.2;0.5;
65783;PMS5003;52532;53.358;-1.488;2022-09-03T04:01:12;8.9;1.0;
65783;PMS5003;52532;53.358;-1.488;2022-09-03T04:04:17;7.0;0.8;
65783;PMS5003;52532;53.358;-1.488;2022-09-03T04:07:19;9.4;0.0;
65783;PMS5003;52532;53.358;-1.488;2022-09-03T04:10:22;11.8;0.8;
65783;PMS5003;52532;53.358;-1.488;2022-09-03T04:13:27;7.8;0.0;
65783;PMS5003;52532;53.358;-1.488;2022-09-03T04:16:31;9.3;0.1;
65783;PMS5003;52532;53.358;-1.488;2022-09-03T04:19:33;12.3;0.4;
65783;PMS5003;52532;53.358;-1.488;2022-09-03T04:22:36;7.2;0.2;
65783;PMS5003;52532;53.358;-1.488;2022-09-03T04:25:39;11.7;1.0;
65783;PMS5003;52532;53.358;-1.488;2022-09-03T04:28:43;13.8;0.1;
65783;PMS5003;52532;53.358;-1.488;2022-09-03T04:31:46;9.6;0.3;
65783;PMS5003;52532;53.358;-1.488;2022-09-03T04:36:00;10.9;1.1;
65783;PMS5003;52532;53.358;-1.488;2022-09-03T04:39:04;11.0;0.1;
65783;PMS5003;52532;53.358;-1.488;2022-09-03T04:42:06;7.8;0.1;
65783;PMS5003;52532;53.358;-1.488;2022-09-03T04:45:09;10.1;0.5;
65783;PMS5003;52532;53.358;-1.488;2022-09-03T04:48:12;11.9;1.0;
65783;PMS5003;52532;53.358;-1.488;2022-09-03T04:51:16;8.2;0.7;
65783;PMS5003;52532;53.358;-1.488;2022-09-03T04:54:21;9.9;0.3;
65783;PMS5003;52532;53.358;-1.488;2022-09-03T04:57:24;11.5;0.9;
65783;PMS5003;52532;53.358;-1.488;2022-09-03T05:00:27;6.8;0.1;
65783;PMS5003;52532;53.358;-1.488;2022-09-03T05:03:30;10.3;0.4;
65783;PMS5003;52532;53.358;-1.488;2022-09-03T05:06:33;13.0;0.3;
65783;PMS5003;52532;53.358;-1.488;2022-09-03T05:09:37;7.7;0.4;
65783;PMS5003;52532;53.358;-1.488;2022-09-03T05:12:40;0.7;0.7;
65783;PMS5003;52532;53.358;-1.488;2022-09-03T05:15:43;0.0;0.0;
65783;PMS5003;52532;53.358;-1.488;2022-09-03T05:18:46;1.8;0.6;
65783;PMS5003;52532;53.358;-1.488;2022-09-03T05:21:49;5.6;1.1;
65783;PMS5003;52532;53.358;-1.488;2022-09-03T05:24:52;1.6;1.6;
65783;PMS5003;52532;53.358;-1.488;2022-09-03T05:27:56;1.9;0.7;
65783;PMS5003;52532;53.358;-1.488;2022-09-03T05:31:00;10.2;0.2;
65783;PMS5003;52532;53.358;-1.488;2022-09-03T05:34:05;14.1;0.3;
65783;PMS5003;52532;53.358;-1.488;2022-09-03T05:37:08;9.3;0.3;
65783;PMS5003;52532;53.358;-1.488;2022-09-03T05:40:12;11.4;1.0;
65783;PMS5003;52532;53.358;-1.488;2022-09-03T05:43:15;11.4;1.0;
65783;PMS5003;52532;53.358;-1.488;2022-09-03T05:46:18;7.4;0.6;
65783;PMS5003;52532;53.358;-1.488;2022-09-03T05:49:20;11.3;1.0;
65783;PMS5003;52532;53.358;-1.488;2022-09-03T05:52:23;10.6;1.0;
65783;PMS5003;52532;53.358;-1.488;2022-09-03T05:55:26;7.6;0.4;
65783;PMS5003;52532;53.358;-1.488;2022-09-03T05:58:29;10.7;0.0;
65783;PMS5003;52532;53.358;-1.488;2022-09-03T06:01:33;10.2;0.0;
65783;PMS5003;52532;53.358;-1.488;2022-09-03T06:04:37;6.7;0.0;
65783;PMS5003;52532;53.358;-1.488;2022-09-03T06:07:39;10.9;0.0;
65783;PMS5003;52532;53.358;-1.488;2022-09-03T06:10:43;10.6;0.0;
65783;PMS5003;52532;53.358;-1.488;2022-09-03T06:13:46;7.1;0.0;
65783;PMS5003;52532;53.358;-1.488;2022-09-03T06:16:49;11.1;0.5;
65783;PMS5003;52532;53.358;-1.488;2022-09-03T06:19:53;10.0;0.3;
65783;PMS5003;52532;53.358;-1.488;2022-09-03T06:22:56;7.6;0.9;
65783;PMS5003;52532;53.358;-1.488;2022-09-03T06:26:00;12.7;1.0;
65783;PMS5003;52532;53.358;-1.488;2022-09-03T06:29:04;9.9;0.5;
65783;PMS5003;52532;53.358;-1.488;2022-09-03T06:32:07;7.9;0.2;
65783;PMS5003;52532;53.358;-1.488;2022-09-03T06:35:10;13.0;1.1;
65783;PMS5003;52532;53.358;-1.488;2022-09-03T06:38:13;10.6;0.1;
65783;PMS5003;52532;53.358;-1.488;2022-09-03T06:41:16;12.0;0.6;
65783;PMS5003;52532;53.358;-1.488;2022-09-03T06:44:25;11.0;0.6;
65783;PMS5003;52532;53.358;-1.488;2022-09-03T06:47:28;8.5;0.0;
65783;PMS5003;52532;53.358;-1.488;2022-09-03T06:50:31;7.8;0.0;
65783;PMS5003;52532;53.358;-1.488;2022-09-03T06:53:34;9.9;0.6;
65783;PMS5003;52532;53.358;-1.488;2022-09-03T06:56:39;5.8;1.2;
65783;PMS5003;52532;53.358;-1.488;2022-09-03T06:59:43;8.6;0.9;
65783;PMS5003;52532;53.358;-1.488;2022-09-03T07:02:46;12.0;1.0;
65783;PMS5003;52532;53.358;-1.488;2022-09-03T07:05:49;9.2;0.0;
65783;PMS5003;52532;53.358;-1.488;2022-09-03T07:08:52;6.9;0.1;
65783;PMS5003;52532;53.358;-1.488;2022-09-03T07:11:56;4.3;2.3;
65783;PMS5003;52532;53.358;-1.488;2022-09-03T07:15:00;2.0;1.0;
65783;PMS5003;52532;53.358;-1.488;2022-09-03T07:18:03;12.0;0.7;
65783;PMS5003;52532;53.358;-1.488;2022-09-03T07:21:06;5.3;1.3;
65783;PMS5003;52532;53.358;-1.488;2022-09-03T07:24:11;1.0;1.0;
65783;PMS5003;52532;53.358;-1.488;2022-09-03T07:27:13;9.2;1.1;
65783;PMS5003;52532;53.358;-1.488;2022-09-03T07:30:16;10.7;0.4;
65783;PMS5003;52532;53.358;-1.488;2022-09-03T07:33:20;7.9;0.0;
65783;PMS5003;52532;53.358;-1.488;2022-09-03T07:36:24;9.2;0.0;
65783;PMS5003;52532;53.358;-1.488;2022-09-03T07:39:28;7.4;0.5;
65783;PMS5003;52532;53.358;-1.488;2022-09-03T07:42:31;1.0;1.0;
65783;PMS5003;52532;53.358;-1.488;2022-09-03T07:45:33;7.2;1.3;
65783;PMS5003;52532;53.358;-1.488;2022-09-03T07:48:36;4.6;1.0;
65783;PMS5003;52532;53.358;-1.488;2022-09-03T07:51:39;2.6;0.0;
65783;PMS5003;52532;53.358;-1.488;2022-09-03T07:54:42;3.0;2.2;
65783;PMS5003;52532;53.358;-1.488;2022-09-03T07:57:45;4.5;2.0;
65783;PMS5003;52532;53.358;-1.488;2022-09-03T08:00:48;3.3;1.7;
65783;PMS5003;52532;53.358;-1.488;2022-09-03T08:03:51;1.1;1.1;
65783;PMS5003;52532;53.358;-1.488;2022-09-03T08:06:55;0.7;0.7;
65783;PMS5003;52532;53.358;-1.488;2022-09-03T08:10:00;0.0;0.0;
65783;PMS5003;52532;53.358;-1.488;2022-09-03T08:13:03;9.4;0.7;
65783;PMS5003;52532;53.358;-1.488;2022-09-03T08:16:06;12.1;0.4;
65783;PMS5003;52532;53.358;-1.488;2022-09-03T08:19:10;9.8;1.1;
65783;PMS5003;52532;53.358;-1.488;2022-09-03T08:22:13;9.1;0.3;
65783;PMS5003;52532;53.358;-1.488;2022-09-03T08:25:16;11.4;0.7;
65783;PMS5003;52532;53.358;-1.488;2022-09-03T08:28:19;9.8;0.1;
65783;PMS5003;52532;53.358;-1.488;2022-09-03T08:31:22;9.9;0.9;
65783;PMS5003;52532;53.358;-1.488;2022-09-03T08:34:27;11.1;1.0;
65783;PMS5003;52532;53.358;-1.488;2022-09-03T08:37:29;8.9;1.0;
65783;PMS5003;52532;53.358;-1.488;2022-09-03T08:40:33;12.9;1.6;
65783;PMS5003;52532;53.358;-1.488;2022-09-03T08:43:45;11.6;0.5;
65783;PMS5003;52532;53.358;-1.488;2022-09-03T08:46:58;7.8;0.3;
65783;PMS5003;52532;53.358;-1.488;2022-09-03T08:50:07;9.1;0.1;
65783;PMS5003;52532;53.358;-1.488;2022-09-03T08:53:20;12.7;1.0;
65783;PMS5003;52532;53.358;-1.488;2022-09-03T08:56:27;8.8;0.1;
65783;PMS5003;52532;53.358;-1.488;2022-09-03T08:59:34;10.2;0.9;
65783;PMS5003;52532;53.358;-1.488;2022-09-03T09:02:40;11.8;0.9;
65783;PMS5003;52532;53.358;-1.488;2022-09-03T09:05:53;8.8;1.0;
65783;PMS5003;52532;53.358;-1.488;2022-09-03T09:09:08;13.2;0.1;
65783;PMS5003;52532;53.358;-1.488;2022-09-03T09:12:27;12.0;0.3;
65783;PMS5003;52532;53.358;-1.488;2022-09-03T09:15:39;8.7;0.3;
65783;PMS5003;52532;53.358;-1.488;2022-09-03T09:18:55;9.4;0.0;
65783;PMS5003;52532;53.358;-1.488;2022-09-03T09:22:13;10.7;0.0;
65783;PMS5003;52532;53.358;-1.488;2022-09-03T09:25:24;6.5;0.0;
65783;PMS5003;52532;53.358;-1.488;2022-09-03T09:28:28;9.4;0.0;
65783;PMS5003;52532;53.358;-1.488;2022-09-03T09:31:35;11.3;0.0;
65783;PMS5003;52532;53.358;-1.488;2022-09-03T09:34:39;7.4;0.1;
65783;PMS5003;52532;53.358;-1.488;2022-09-03T09:37:46;10.9;0.5;
65783;PMS5003;52532;53.358;-1.488;2022-09-03T09:40:50;11.1;0.0;
65783;PMS5003;52532;53.358;-1.488;2022-09-03T09:43:58;8.0;0.7;
65783;PMS5003;52532;53.358;-1.488;2022-09-03T09:47:03;11.4;1.0;
65783;PMS5003;52532;53.358;-1.488;2022-09-03T09:50:15;11.0;0.7;
65783;PMS5003;52532;53.358;-1.488;2022-09-03T09:53:19;6.9;0.1;
65783;PMS5003;52532;53.358;-1.488;2022-09-03T09:56:23;9.7;1.5;
65783;PMS5003;52532;53.358;-1.488;2022-09-03T09:59:27;3.7;1.7;
65783;PMS5003;52532;53.358;-1.488;2022-09-03T10:02:32;3.2;1.0;
65783;PMS5003;52532;53.358;-1.488;2022-09-03T10:05:39;5.8;1.0;
65783;PMS5003;52532;53.358;-1.488;2022-09-03T10:08:42;2.5;1.4;
65783;PMS5003;52532;53.358;-1.488;2022-09-03T10:11:46;3.4;0.8;
65783;PMS5003;52532;53.358;-1.488;2022-09-03T10:14:54;10.6;1.0;
65783;PMS5003;52532;53.358;-1.488;2022-09-03T10:18:07;11.3;0.5;
65783;PMS5003;52532;53.358;-1.488;2022-09-03T10:21:19;9.9;2.5;
65783;PMS5003;52532;53.358;-1.488;2022-09-03T10:24:39;10.7;0.7;
65783;PMS5003;52532;53.358;-1.488;2022-09-03T10:27:52;10.6;0.2;
65783;PMS5003;52532;53.358;-1.488;2022-09-03T10:31:17;7.8;0.5;
65783;PMS5003;52532;53.358;-1.488;2022-09-03T10:34:39;13.6;1.3;
65783;PMS5003;52532;53.358;-1.488;2022-09-03T10:37:53;12.5;1.3;
65783;PMS5003;52532;53.358;-1.488;2022-09-03T10:41:05;8.5;0.4;
65783;PMS5003;52532;53.358;-1.488;2022-09-03T10:44:22;12.5;0.6;
65783;PMS5003;52532;53.358;-1.488;2022-09-03T10:47:43;10.9;0.0;
65783;PMS5003;52532;53.358;-1.488;2022-09-03T10:51:03;7.1;0.0;
65783;PMS5003;52532;53.358;-1.488;2022-09-03T10:54:14;12.1;0.5;
65783;PMS5003;52532;53.358;-1.488;2022-09-03T10:57:34;9.8;0.1;
65783;PMS5003;52532;53.358;-1.488;2022-09-03T11:00:49;6.8;0.0;
65783;PMS5003;52532;53.358;-1.488;2022-09-03T11:04:09;11.2;0.4;
65783;PMS5003;52532;53.358;-1.488;2022-09-03T11:07:22;10.8;0.1;
65783;PMS5003;52532;53.358;-1.488;2022-09-03T11:10:31;8.1;0.7;
65783;PMS5003;52532;53.358;-1.488;2022-09-03T11:13:37;11.5;0.7;
65783;PMS5003;52532;53.358;-1.488;2022-09-03T11:16:46;10.9;1.0;
65783;PMS5003;52532;53.358;-1.488;2022-09-03T11:19:55;11.9;0.2;
65783;PMS5003;52532;53.358;-1.488;2022-09-03T11:23:05;12.8;1.2;
65783;PMS5003;52532;53.358;-1.488;2022-09-03T11:26:14;11.4;1.0;
65783;PMS5003;52532;53.358;-1.488;2022-09-03T11:29:22;8.6;0.7;
65783;PMS5003;52532;53.358;-1.488;2022-09-03T11:32:40;12.1;0.2;
65783;PMS5003;52532;53.358;-1.488;2022-09-03T11:35:54;10.3;0.0;
65783;PMS5003;52532;53.358;-1.488;2022-09-03T11:39:11;8.9;0.6;
65783;PMS5003;52532;53.358;-1.488;2022-09-03T11:42:23;12.0;0.5;
65783;PMS5003;52532;53.358;-1.488;2022-09-03T11:45:34;11.4;0.6;
65783;PMS5003;52532;53.358;-1.488;2022-09-03T11:48:40;9.2;1.8;
65783;PMS5003;52532;53.358;-1.488;2022-09-03T11:51:54;12.0;1.1;
65783;PMS5003;52532;53.358;-1.488;2022-09-03T11:55:00;9.6;0.3;
65783;PMS5003;52532;53.358;-1.488;2022-09-03T11:58:09;9.0;1.6;
65783;PMS5003;52532;53.358;-1.488;2022-09-03T12:01:15;11.9;1.1;
65783;PMS5003;52532;53.358;-1.488;2022-09-03T12:04:20;10.4;0.6;
65783;PMS5003;52532;53.358;-1.488;2022-09-03T12:07:35;7.4;0.0;
65783;PMS5003;52532;53.358;-1.488;2022-09-03T12:10:52;11.4;0.5;
65783;PMS5003;52532;53.358;-1.488;2022-09-03T12:14:12;9.2;0.6;
65783;PMS5003;52532;53.358;-1.488;2022-09-03T12:17:26;10.3;1.8;
65783;PMS5003;52532;53.358;-1.488;2022-09-03T12:20:34;11.4;0.5;
65783;PMS5003;52532;53.358;-1.488;2022-09-03T12:23:39;10.0;1.1;
65783;PMS5003;52532;53.358;-1.488;2022-09-03T12:26:44;9.0;0.2;
65783;PMS5003;52532;53.358;-1.488;2022-09-03T12:29:55;11.0;0.0;
65783;PMS5003;52532;53.358;-1.488;2022-09-03T12:33:02;7.8;0.0;
65783;PMS5003;52532;53.358;-1.488;2022-09-03T12:36:08;9.9;1.0;
65783;PMS5003;52532;53.358;-1.488;2022-09-03T12:39:12;12.6;0.0;
65783;PMS5003;52532;53.358;-1.488;2022-09-03T12:42:18;8.9;0.4;
65783;PMS5003;52532;53.358;-1.488;2022-09-03T12:45:25;9.5;0.0;
65783;PMS5003;52532;53.358;-1.488;2022-09-03T12:48:28;11.8;0.2;
65783;PMS5003;52532;53.358;-1.488;2022-09-03T12:51:32;7.4;1.0;
65783;PMS5003;52532;53.358;-1.488;2022-09-03T12:54:39;0.8;0.8;
65783;PMS5003;52532;53.358;-1.488;2022-09-03T12:57:50;1.2;1.2;
65783;PMS5003;52532;53.358;-1.488;2022-09-03T13:00:58;2.5;2.5;
65783;PMS5003;52532;53.358;-1.488;2022-09-03T13:04:07;3.3;3.3;
65783;PMS5003;52532;53.358;-1.488;2022-09-03T13:07:21;4.3;3.5;
65783;PMS5003;52532;53.358;-1.488;2022-09-03T13:10:29;2.8;2.6;
65783;PMS5003;52532;53.358;-1.488;2022-09-03T13:13:35;3.3;1.9;
65783;PMS5003;52532;53.358;-1.488;2022-09-03T13:16:46;3.7;2.4;
65783;PMS5003;52532;53.358;-1.488;2022-09-03T13:20:15;2.4;1.3;
65783;PMS5003;52532;53.358;-1.488;2022-09-03T13:23:36;2.5;2.5;
65783;PMS5003;52532;53.358;-1.488;2022-09-03T13:26:55;3.2;2.3;
65783;PMS5003;52532;53.358;-1.488;2022-09-03T13:30:11;3.2;2.0;
65783;PMS5003;52532;53.358;-1.488;2022-09-03T13:33:19;4.6;3.2;
65783;PMS5003;52532;53.358;-1.488;2022-09-03T13:36:25;4.1;3.2;
65783;PMS5003;52532;53.358;-1.488;2022-09-03T13:39:38;4.6;1.3;
65783;PMS5003;52532;53.358;-1.488;2022-09-03T13:42:48;4.0;3.6;
65783;PMS5003;52532;53.358;-1.488;2022-09-03T13:45:56;2.2;2.2;
65783;PMS5003;52532;53.358;-1.488;2022-09-03T13:49:05;1.0;1.0;
65783;PMS5003;52532;53.358;-1.488;2022-09-03T13:53:33;2.5;1.5;
65783;PMS5003;52532;53.358;-1.488;2022-09-03T13:56:48;0.2;0.2;
65783;PMS5003;52532;53.358;-1.488;2022-09-03T14:00:03;1.6;1.3;
65783;PMS5003;52532;53.358;-1.488;2022-09-03T14:03:11;3.7;1.4;
65783;PMS5003;52532;53.358;-1.488;2022-09-03T14:06:34;3.1;0.9;
65783;PMS5003;52532;53.358;-1.488;2022-09-03T14:09:50;3.2;3.1;
65783;PMS5003;52532;53.358;-1.488;2022-09-03T14:13:03;1.2;1.2;
65783;PMS5003;52532;53.358;-1.488;2022-09-03T14:16:19;0.6;0.6;
65783;PMS5003;52532;53.358;-1.488;2022-09-03T14:19:33;1.5;1.5;
65783;PMS5003;52532;53.358;-1.488;2022-09-03T14:22:46;3.5;2.8;
65783;PMS5003;52532;53.358;-1.488;2022-09-03T14:25:53;4.5;3.5;
65783;PMS5003;52532;53.358;-1.488;2022-09-03T14:28:57;1.4;0.9;
65783;PMS5003;52532;53.358;-1.488;2022-09-03T14:32:14;1.9;1.6;
65783;PMS5003;52532;53.358;-1.488;2022-09-03T14:35:32;1.9;1.9;
65783;PMS5003;52532;53.358;-1.488;2022-09-03T14:38:45;1.6;1.6;
65783;PMS5003;52532;53.358;-1.488;2022-09-03T14:42:06;1.7;1.7;
65783;PMS5003;52532;53.358;-1.488;2022-09-03T14:45:24;1.7;1.7;
65783;PMS5003;52532;53.358;-1.488;2022-09-03T14:48:49;0.4;0.4;
65783;PMS5003;52532;53.358;-1.488;2022-09-03T14:52:09;0.8;0.8;
65783;PMS5003;52532;53.358;-1.488;2022-09-03T14:55:26;0.7;0.7;
65783;PMS5003;52532;53.358;-1.488;2022-09-03T14:58:43;3.6;2.4;
65783;PMS5003;52532;53.358;-1.488;2022-09-03T15:02:08;2.4;2.2;
65783;PMS5003;52532;53.358;-1.488;2022-09-03T15:05:48;2.0;2.0;
65783;PMS5003;52532;53.358;-1.488;2022-09-03T15:09:19;3.1;3.1;
65783;PMS5003;52532;53.358;-1.488;2022-09-03T15:12:31;3.9;2.9;
65783;PMS5003;52532;53.358;-1.488;2022-09-03T15:15:44;1.8;1.5;
65783;PMS5003;52532;53.358;-1.488;2022-09-03T15:19:07;1.1;1.1;
65783;PMS5003;52532;53.358;-1.488;2022-09-03T15:22:17;1.3;1.3;
65783;PMS5003;52532;53.358;-1.488;2022-09-03T15:25:31;2.4;2.4;
65783;PMS5003;52532;53.358;-1.488;2022-09-03T15:28:48;5.6;3.5;
65783;PMS5003;52532;53.358;-1.488;2022-09-03T15:32:01;4.2;2.0;
65783;PMS5003;52532;53.358;-1.488;2022-09-03T15:35:15;2.3;1.0;
65783;PMS5003;52532;53.358;-1.488;2022-09-03T15:38:38;2.1;2.1;
65783;PMS5003;52532;53.358;-1.488;2022-09-03T15:41:47;4.4;2.2;
65783;PMS5003;52532;53.358;-1.488;2022-09-03T15:45:00;2.4;1.4;
65783;PMS5003;52532;53.358;-1.488;2022-09-03T15:48:18;3.9;3.9;
65783;PMS5003;52532;53.358;-1.488;2022-09-03T15:51:39;3.0;3.0;
65783;PMS5003;52532;53.358;-1.488;2022-09-03T15:55:00;2.5;2.5;
65783;PMS5003;52532;53.358;-1.488;2022-09-03T15:58:13;3.8;3.8;
65783;PMS5003;52532;53.358;-1.488;2022-09-03T16:01:26;4.6;3.5;
65783;PMS5003;52532;53.358;-1.488;2022-09-03T16:04:41;3.6;2.9;
65783;PMS5003;52532;53.358;-1.488;2022-09-03T16:07:58;4.8;4.1;
65783;PMS5003;52532;53.358;-1.488;2022-09-03T16:11:08;4.0;3.9;
65783;PMS5003;52532;53.358;-1.488;2022-09-03T16:14:20;3.0;3.0;
65783;PMS5003;52532;53.358;-1.488;2022-09-03T16:17:32;2.7;2.3;
65783;PMS5003;52532;53.358;-1.488;2022-09-03T16:20:41;2.6;1.9;
65783;PMS5003;52532;53.358;-1.488;2022-09-03T16:23:48;2.1;1.6;
65783;PMS5003;52532;53.358;-1.488;2022-09-03T16:27:00;2.7;2.7;
65783;PMS5003;52532;53.358;-1.488;2022-09-03T16:30:10;3.9;3.9;
65783;PMS5003;52532;53.358;-1.488;2022-09-03T16:33:22;1.4;1.4;
65783;PMS5003;52532;53.358;-1.488;2022-09-03T16:36:37;1.9;1.9;
65783;PMS5003;52532;53.358;-1.488;2022-09-03T16:39:49;3.3;3.3;
65783;PMS5003;52532;53.358;-1.488;2022-09-03T16:42:59;2.5;2.5;
65783;PMS5003;52532;53.358;-1.488;2022-09-03T16:46:13;3.4;3.4;
65783;PMS5003;52532;53.358;-1.488;2022-09-03T16:49:28;2.8;1.8;
65783;PMS5003;52532;53.358;-1.488;2022-09-03T16:52:44;2.2;1.3;
65783;PMS5003;52532;53.358;-1.488;2022-09-03T16:56:06;3.7;3.1;
65783;PMS5003;52532;53.358;-1.488;2022-09-03T16:59:21;3.9;2.0;
65783;PMS5003;52532;53.358;-1.488;2022-09-03T17:02:39;1.9;0.8;
65783;PMS5003;52532;53.358;-1.488;2022-09-03T17:07:03;3.1;1.2;
65783;PMS5003;52532;53.358;-1.488;2022-09-03T17:10:18;7.0;3.5;
65783;PMS5003;52532;53.358;-1.488;2022-09-03T17:13:34;2.7;1.8;
65783;PMS5003;52532;53.358;-1.488;2022-09-03T17:16:50;2.9;2.0;
65783;PMS5003;52532;53.358;-1.488;2022-09-03T17:20:00;5.0;2.0;
65783;PMS5003;52532;53.358;-1.488;2022-09-03T17:23:13;4.4;1.8;
65783;PMS5003;52532;53.358;-1.488;2022-09-03T17:26:33;4.2;2.2;
65783;PMS5003;52532;53.358;-1.488;2022-09-03T17:29:52;4.6;2.2;
65783;PMS5003;52532;53.358;-1.488;2022-09-03T17:33:08;2.7;2.1;
65783;PMS5003;52532;53.358;-1.488;2022-09-03T17:36:35;2.2;2.2;
65783;PMS5003;52532;53.358;-1.488;2022-09-03T17:39:44;2.6;2.2;
65783;PMS5003;52532;53.358;-1.488;2022-09-03T17:43:02;4.0;3.8;
65783;PMS5003;52532;53.358;-1.488;2022-09-03T17:46:20;5.2;2.6;
65783;PMS5003;52532;53.358;-1.488;2022-09-03T17:49:32;4.2;2.3;
65783;PMS5003;52532;53.358;-1.488;2022-09-03T17:52:46;3.5;3.3;
65783;PMS5003;52532;53.358;-1.488;2022-09-03T17:55:54;4.6;4.0;
65783;PMS5003;52532;53.358;-1.488;2022-09-03T17:59:02;4.3;3.3;
65783;PMS5003;52532;53.358;-1.488;2022-09-03T18:02:16;1.5;1.5;
65783;PMS5003;52532;53.358;-1.488;2022-09-03T18:05:29;3.0;3.0;
65783;PMS5003;52532;53.358;-1.488;2022-09-03T18:08:43;2.6;2.6;
65783;PMS5003;52532;53.358;-1.488;2022-09-03T18:11:55;4.4;2.5;
65783;PMS5003;52532;53.358;-1.488;2022-09-03T18:15:11;3.4;1.9;
65783;PMS5003;52532;53.358;-1.488;2022-09-03T18:18:23;3.0;1.8;
65783;PMS5003;52532;53.358;-1.488;2022-09-03T18:21:29;4.1;2.7;
65783;PMS5003;52532;53.358;-1.488;2022-09-03T18:26:51;3.2;2.9;
65783;PMS5003;52532;53.358;-1.488;2022-09-03T18:32:10;2.6;1.5;
65783;PMS5003;52532;53.358;-1.488;2022-09-03T18:37:23;5.6;4.1;
65783;PMS5003;52532;53.358;-1.488;2022-09-03T18:42:43;1.9;1.9;
65783;PMS5003;52532;53.358;-1.488;2022-09-03T18:48:05;2.6;2.6;
65783;PMS5003;52532;53.358;-1.488;2022-09-03T18:53:26;3.7;3.7;
65783;PMS5003;52532;53.358;-1.488;2022-09-03T18:58:52;2.1;2.1;
65783;PMS5003;52532;53.358;-1.488;2022-09-03T19:04:18;1.7;1.7;
65783;PMS5003;52532;53.358;-1.488;2022-09-03T19:09:42;2.2;2.2;
65783;PMS5003;52532;53.358;-1.488;2022-09-03T19:15:12;3.4;2.9;
65783;PMS5003;52532;53.358;-1.488;2022-09-03T19:20:33;6.4;3.3;
65783;PMS5003;52532;53.358;-1.488;2022-09-03T19:25:50;5.7;4.1;
65783;PMS5003;52532;53.358;-1.488;2022-09-03T19:31:17;3.0;2.2;
65783;PMS5003;52532;53.358;-1.488;2022-09-03T19:36:52;2.3;1.7;
65783;PMS5003;52532;53.358;-1.488;2022-09-03T19:42:16;4.6;2.8;
65783;PMS5003;52532;53.358;-1.488;2022-09-03T19:47:39;2.2;1.8;
65783;PMS5003;52532;53.358;-1.488;2022-09-03T19:52:58;3.4;2.9;
65783;PMS5003;52532;53.358;-1.488;2022-09-03T19:58:16;3.3;3.3;
65783;PMS5003;52532;53.358;-1.488;2022-09-03T20:03:33;2.9;2.9;
65783;PMS5003;52532;53.358;-1.488;2022-09-03T20:08:50;2.0;2.0;
65783;PMS5003;52532;53.358;-1.488;2022-09-03T20:14:03;4.8;3.5;
65783;PMS5003;52532;53.358;-1.488;2022-09-03T20:17:17;5.7;3.7;
65783;PMS5003;52532;53.358;-1.488;2022-09-03T20:20:33;5.0;3.7;
65783;PMS5003;52532;53.358;-1.488;2022-09-03T20:23:47;4.1;3.6;
65783;PMS5003;52532;53.358;-1.488;2022-09-03T20:27:00;6.1;3.7;
65783;PMS5003;52532;53.358;-1.488;2022-09-03T20:30:13;3.2;2.0;
65783;PMS5003;52532;53.358;-1.488;2022-09-03T20:33:23;4.8;3.8;
65783;PMS5003;52532;53.358;-1.488;2022-09-03T20:36:33;6.1;4.2;
65783;PMS5003;52532;53.358;-1.488;2022-09-03T20:39:47;4.5;3.6;
65783;PMS5003;52532;53.358;-1.488;2022-09-03T20:43:04;5.4;3.1;